sensor_id;sensor_type;location;lat;lon;timestamp;temperature;humidity
11497;DHT22;5805;51.542;7.230;2023-07-20T00:00:20;20.10;99.90
11497;DHT22;5805;51.542;7.230;2023-07-20T00:02:45;20.10;99.90
11497;DHT22;5805;51.542;7.230;2023-07-20T00:05:11;20.10;99.90
11497;DHT22;5805;51.542;7.230;2023-07-20T00:07:38;20.10;99.90
11497;DHT22;5805;51.542;7.230;2023-07-20T00:10:04;20.10;99.90
11497;DHT22;5805;51.542;7.230;2023-07-20T00:12:30;20.10;99.90
11497;DHT22;5805;51.542;7.230;2023-07-20T00:14:56;20.20;99.90
11497;DHT22;5805;51.542;7.230;2023-07-20T00:17:21;20.20;99.90
11497;DHT22;5805;51.542;7.230;2023-07-20T00:19:47;20.20;99.90
11497;DHT22;5805;51.542;7.230;2023-07-20T00:22:12;20.20;99.90
11497;DHT22;5805;51.542;7.230;2023-07-20T00:24:39;20.20;99.90
11497;DHT22;5805;51.542;7.230;2023-07-20T00:27:05;20.20;99.90
11497;DHT22;5805;51.542;7.230;2023-07-20T00:29:31;20.20;99.90
11497;DHT22;5805;51.542;7.230;2023-07-20T00:31:58;20.30;99.90
11497;DHT22;5805;51.542;7.230;2023-07-20T00:34:24;20.30;99.90
11497;DHT22;5805;51.542;7.230;2023-07-20T00:36:50;20.20;99.90
11497;DHT22;5805;51.542;7.230;2023-07-20T00:39:15;20.20;99.90
11497;DHT22;5805;51.542;7.230;2023-07-20T00:41:42;20.20;99.90
11497;DHT22;5805;51.542;7.230;2023-07-20T00:44:08;20.20;99.90
11497;DHT22;5805;51.542;7.230;2023-07-20T00:46:34;20.20;99.90
11497;DHT22;5805;51.542;7.230;2023-07-20T00:49:00;20.20;99.90
11497;DHT22;5805;51.542;7.230;2023-07-20T00:51:26;20.20;99.90
11497;DHT22;5805;51.542;7.230;2023-07-20T00:53:52;20.20;99.90
11497;DHT22;5805;51.542;7.230;2023-07-20T00:56:18;20.20;99.90
11497;DHT22;5805;51.542;7.230;2023-07-20T00:58:46;20.10;99.90
11497;DHT22;5805;51.542;7.230;2023-07-20T01:01:11;20.10;99.90
11497;DHT22;5805;51.542;7.230;2023-07-20T01:03:37;20.10;99.90
11497;DHT22;5805;51.542;7.230;2023-07-20T01:06:09;20.10;99.90
11497;DHT22;5805;51.542;7.230;2023-07-20T01:08:40;20.10;99.90
11497;DHT22;5805;51.542;7.230;2023-07-20T01:11:13;20.10;99.90
11497;DHT22;5805;51.542;7.230;2023-07-20T01:13:42;20.10;99.90
11497;DHT22;5805;51.542;7.230;2023-07-20T01:16:09;20.10;99.90
11497;DHT22;5805;51.542;7.230;2023-07-20T01:18:35;20.10;99.90
11497;DHT22;5805;51.542;7.230;2023-07-20T01:21:05;20.10;99.90
11497;DHT22;5805;51.542;7.230;2023-07-20T01:26:38;20.10;99.90
11497;DHT22;5805;51.542;7.230;2023-07-20T01:29:21;20.10;99.90
11497;DHT22;5805;51.542;7.230;2023-07-20T01:31:51;20.10;99.90
11497;DHT22;5805;51.542;7.230;2023-07-20T01:34:18;20.10;99.90
11497;DHT22;5805;51.542;7.230;2023-07-20T01:36:46;20.10;99.90
11497;DHT22;5805;51.542;7.230;2023-07-20T01:39:13;20.10;99.90
11497;DHT22;5805;51.542;7.230;2023-07-20T01:41:39;20.10;99.90
11497;DHT22;5805;51.542;7.230;2023-07-20T01:44:05;20.10;99.90
11497;DHT22;5805;51.542;7.230;2023-07-20T01:46:31;20.10;99.90
11497;DHT22;5805;51.542;7.230;2023-07-20T01:48:58;20.00;99.90
11497;DHT22;5805;51.542;7.230;2023-07-20T01:51:24;19.90;99.90
11497;DHT22;5805;51.542;7.230;2023-07-20T01:53:50;19.90;99.90
11497;DHT22;5805;51.542;7.230;2023-07-20T01:56:15;19.90;99.90
11497;DHT22;5805;51.542;7.230;2023-07-20T01:58:41;19.80;99.90
11497;DHT22;5805;51.542;7.230;2023-07-20T02:01:07;19.80;99.90
11497;DHT22;5805;51.542;7.230;2023-07-20T02:03:32;19.80;99.90
11497;DHT22;5805;51.542;7.230;2023-07-20T02:05:59;19.90;99.90
11497;DHT22;5805;51.542;7.230;2023-07-20T02:08:25;19.90;99.90
11497;DHT22;5805;51.542;7.230;2023-07-20T02:10:52;19.80;99.90
11497;DHT22;5805;51.542;7.230;2023-07-20T02:13:18;19.80;99.90
11497;DHT22;5805;51.542;7.230;2023-07-20T02:15:43;19.70;99.90
11497;DHT22;5805;51.542;7.230;2023-07-20T02:18:09;19.70;99.90
11497;DHT22;5805;51.542;7.230;2023-07-20T02:20:35;19.80;99.90
11497;DHT22;5805;51.542;7.230;2023-07-20T02:23:02;19.80;99.90
11497;DHT22;5805;51.542;7.230;2023-07-20T02:25:27;19.80;99.90
11497;DHT22;5805;51.542;7.230;2023-07-20T02:27:53;19.90;99.90
11497;DHT22;5805;51.542;7.230;2023-07-20T02:30:19;19.80;99.90
11497;DHT22;5805;51.542;7.230;2023-07-20T02:32:44;19.80;99.90
11497;DHT22;5805;51.542;7.230;2023-07-20T02:35:10;19.80;99.90
11497;DHT22;5805;51.542;7.230;2023-07-20T02:37:36;19.80;99.90
11497;DHT22;5805;51.542;7.230;2023-07-20T02:40:03;19.80;99.90
11497;DHT22;5805;51.542;7.230;2023-07-20T02:42:29;19.60;99.90
11497;DHT22;5805;51.542;7.230;2023-07-20T02:44:55;19.40;99.90
11497;DHT22;5805;51.542;7.230;2023-07-20T02:47:21;19.30;99.90
11497;DHT22;5805;51.542;7.230;2023-07-20T02:49:46;19.30;99.90
11497;DHT22;5805;51.542;7.230;2023-07-20T02:52:12;19.20;99.90
11497;DHT22;5805;51.542;7.230;2023-07-20T02:54:37;19.00;99.90
11497;DHT22;5805;51.542;7.230;2023-07-20T02:57:05;18.90;99.90
11497;DHT22;5805;51.542;7.230;2023-07-20T02:59:31;18.90;99.90
11497;DHT22;5805;51.542;7.230;2023-07-20T03:01:56;18.90;99.90
11497;DHT22;5805;51.542;7.230;2023-07-20T03:04:22;18.90;99.90
11497;DHT22;5805;51.542;7.230;2023-07-20T03:06:48;18.80;99.90
11497;DHT22;5805;51.542;7.230;2023-07-20T03:09:13;18.70;99.90
11497;DHT22;5805;51.542;7.230;2023-07-20T03:11:39;18.70;99.90
11497;DHT22;5805;51.542;7.230;2023-07-20T03:14:06;18.70;99.90
11497;DHT22;5805;51.542;7.230;2023-07-20T03:16:32;18.60;99.90
11497;DHT22;5805;51.542;7.230;2023-07-20T03:18:58;18.70;99.90
11497;DHT22;5805;51.542;7.230;2023-07-20T03:21:23;18.70;99.90
11497;DHT22;5805;51.542;7.230;2023-07-20T03:23:49;18.70;99.90
11497;DHT22;5805;51.542;7.230;2023-07-20T03:26:14;18.70;99.90
11497;DHT22;5805;51.542;7.230;2023-07-20T03:28:40;18.70;99.90
11497;DHT22;5805;51.542;7.230;2023-07-20T03:31:07;18.70;99.90
11497;DHT22;5805;51.542;7.230;2023-07-20T03:33:34;18.80;99.90
11497;DHT22;5805;51.542;7.230;2023-07-20T03:36:00;18.70;99.90
11497;DHT22;5805;51.542;7.230;2023-07-20T03:38:26;18.80;99.90
11497;DHT22;5805;51.542;7.230;2023-07-20T03:40:53;18.80;99.90
11497;DHT22;5805;51.542;7.230;2023-07-20T03:43:19;18.80;99.90
11497;DHT22;5805;51.542;7.230;2023-07-20T03:45:45;18.80;99.90
11497;DHT22;5805;51.542;7.230;2023-07-20T03:48:12;18.80;99.90
11497;DHT22;5805;51.542;7.230;2023-07-20T03:50:37;18.90;99.90
11497;DHT22;5805;51.542;7.230;2023-07-20T03:53:03;18.90;99.90
11497;DHT22;5805;51.542;7.230;2023-07-20T03:55:30;18.90;99.90
11497;DHT22;5805;51.542;7.230;2023-07-20T03:57:55;19.00;99.90
11497;DHT22;5805;51.542;7.230;2023-07-20T04:00:21;19.00;99.90
11497;DHT22;5805;51.542;7.230;2023-07-20T04:02:47;19.10;99.90
11497;DHT22;5805;51.542;7.230;2023-07-20T04:05:14;19.10;99.90
11497;DHT22;5805;51.542;7.230;2023-07-20T04:07:39;19.00;99.90
11497;DHT22;5805;51.542;7.230;2023-07-20T04:10:06;18.90;99.90
11497;DHT22;5805;51.542;7.230;2023-07-20T04:12:32;18.80;99.90
11497;DHT22;5805;51.542;7.230;2023-07-20T04:14:57;18.80;99.90
11497;DHT22;5805;51.542;7.230;2023-07-20T04:17:23;18.70;99.90
11497;DHT22;5805;51.542;7.230;2023-07-20T04:19:49;18.70;99.90
11497;DHT22;5805;51.542;7.230;2023-07-20T04:22:16;18.70;99.90
11497;DHT22;5805;51.542;7.230;2023-07-20T04:24:41;18.80;99.90
11497;DHT22;5805;51.542;7.230;2023-07-20T04:27:07;18.80;99.90
11497;DHT22;5805;51.542;7.230;2023-07-20T04:29:33;18.90;99.90
11497;DHT22;5805;51.542;7.230;2023-07-20T04:31:58;18.90;99.90
11497;DHT22;5805;51.542;7.230;2023-07-20T04:34:25;18.90;99.90
11497;DHT22;5805;51.542;7.230;2023-07-20T04:36:51;18.90;99.90
11497;DHT22;5805;51.542;7.230;2023-07-20T04:39:18;18.90;99.90
11497;DHT22;5805;51.542;7.230;2023-07-20T04:41:44;19.00;99.90
11497;DHT22;5805;51.542;7.230;2023-07-20T04:44:09;18.90;99.90
11497;DHT22;5805;51.542;7.230;2023-07-20T04:46:35;18.90;99.90
11497;DHT22;5805;51.542;7.230;2023-07-20T04:49:01;19.00;99.90
11497;DHT22;5805;51.542;7.230;2023-07-20T04:51:26;19.00;99.90
11497;DHT22;5805;51.542;7.230;2023-07-20T04:53:52;19.00;99.90
11497;DHT22;5805;51.542;7.230;2023-07-20T04:56:19;19.10;99.90
11497;DHT22;5805;51.542;7.230;2023-07-20T04:58:45;19.10;99.90
11497;DHT22;5805;51.542;7.230;2023-07-20T05:01:10;19.20;99.90
11497;DHT22;5805;51.542;7.230;2023-07-20T05:03:36;19.20;99.90
11497;DHT22;5805;51.542;7.230;2023-07-20T05:06:02;19.40;99.90
11497;DHT22;5805;51.542;7.230;2023-07-20T05:08:28;19.40;99.90
11497;DHT22;5805;51.542;7.230;2023-07-20T05:10:53;19.40;99.90
11497;DHT22;5805;51.542;7.230;2023-07-20T05:13:20;19.40;99.90
11497;DHT22;5805;51.542;7.230;2023-07-20T05:15:46;19.40;99.90
11497;DHT22;5805;51.542;7.230;2023-07-20T05:18:12;19.30;99.90
11497;DHT22;5805;51.542;7.230;2023-07-20T05:20:37;19.30;99.90
11497;DHT22;5805;51.542;7.230;2023-07-20T05:23:03;19.30;99.90
11497;DHT22;5805;51.542;7.230;2023-07-20T05:25:29;19.30;99.90
11497;DHT22;5805;51.542;7.230;2023-07-20T05:27:54;19.30;99.90
11497;DHT22;5805;51.542;7.230;2023-07-20T05:30:21;19.30;99.90
11497;DHT22;5805;51.542;7.230;2023-07-20T05:32:47;19.30;99.90
11497;DHT22;5805;51.542;7.230;2023-07-20T05:35:13;19.40;99.90
11497;DHT22;5805;51.542;7.230;2023-07-20T05:37:38;19.40;99.90
11497;DHT22;5805;51.542;7.230;2023-07-20T05:40:05;19.50;99.90
11497;DHT22;5805;51.542;7.230;2023-07-20T05:42:31;19.50;99.90
11497;DHT22;5805;51.542;7.230;2023-07-20T05:44:56;19.50;99.90
11497;DHT22;5805;51.542;7.230;2023-07-20T05:47:24;19.60;99.90
11497;DHT22;5805;51.542;7.230;2023-07-20T05:49:49;19.70;99.90
11497;DHT22;5805;51.542;7.230;2023-07-20T05:52:15;19.80;99.90
11497;DHT22;5805;51.542;7.230;2023-07-20T05:54:40;20.00;99.90
11497;DHT22;5805;51.542;7.230;2023-07-20T05:57:07;20.10;99.90
11497;DHT22;5805;51.542;7.230;2023-07-20T05:59:33;20.30;99.90
11497;DHT22;5805;51.542;7.230;2023-07-20T06:01:58;20.50;99.90
11497;DHT22;5805;51.542;7.230;2023-07-20T06:04:25;20.60;99.90
11497;DHT22;5805;51.542;7.230;2023-07-20T06:06:51;20.80;99.90
11497;DHT22;5805;51.542;7.230;2023-07-20T06:09:17;20.80;99.90
11497;DHT22;5805;51.542;7.230;2023-07-20T06:11:42;21.00;99.90
11497;DHT22;5805;51.542;7.230;2023-07-20T06:14:08;21.10;99.90
11497;DHT22;5805;51.542;7.230;2023-07-20T06:16:34;21.20;99.90
11497;DHT22;5805;51.542;7.230;2023-07-20T06:19:00;21.10;99.90
11497;DHT22;5805;51.542;7.230;2023-07-20T06:21:27;21.10;99.90
11497;DHT22;5805;51.542;7.230;2023-07-20T06:23:52;21.10;99.90
11497;DHT22;5805;51.542;7.230;2023-07-20T06:26:18;21.00;99.90
11497;DHT22;5805;51.542;7.230;2023-07-20T06:28:44;21.20;99.90
11497;DHT22;5805;51.542;7.230;2023-07-20T06:31:09;21.40;99.90
11497;DHT22;5805;51.542;7.230;2023-07-20T06:33:35;21.70;99.90
11497;DHT22;5805;51.542;7.230;2023-07-20T06:36:01;21.80;99.90
11497;DHT22;5805;51.542;7.230;2023-07-20T06:38:28;22.10;99.90
11497;DHT22;5805;51.542;7.230;2023-07-20T06:40:53;22.40;99.90
11497;DHT22;5805;51.542;7.230;2023-07-20T06:43:19;22.50;99.90
11497;DHT22;5805;51.542;7.230;2023-07-20T06:45:45;22.50;99.90
11497;DHT22;5805;51.542;7.230;2023-07-20T06:48:16;22.30;99.90
11497;DHT22;5805;51.542;7.230;2023-07-20T06:50:43;22.00;99.90
11497;DHT22;5805;51.542;7.230;2023-07-20T06:53:08;21.60;99.90
11497;DHT22;5805;51.542;7.230;2023-07-20T06:55:35;21.30;99.90
11497;DHT22;5805;51.542;7.230;2023-07-20T06:58:01;21.20;99.90
11497;DHT22;5805;51.542;7.230;2023-07-20T07:00:27;21.10;99.90
11497;DHT22;5805;51.542;7.230;2023-07-20T07:02:52;21.20;99.90
11497;DHT22;5805;51.542;7.230;2023-07-20T07:05:18;21.20;99.90
11497;DHT22;5805;51.542;7.230;2023-07-20T07:07:43;21.20;99.90
11497;DHT22;5805;51.542;7.230;2023-07-20T07:10:09;21.30;99.90
11497;DHT22;5805;51.542;7.230;2023-07-20T07:12:36;21.60;99.90
11497;DHT22;5805;51.542;7.230;2023-07-20T07:15:02;21.90;99.90
11497;DHT22;5805;51.542;7.230;2023-07-20T07:17:28;22.10;99.90
11497;DHT22;5805;51.542;7.230;2023-07-20T07:19:54;22.20;99.90
11497;DHT22;5805;51.542;7.230;2023-07-20T07:22:20;22.40;99.90
11497;DHT22;5805;51.542;7.230;2023-07-20T07:24:45;22.60;99.90
11497;DHT22;5805;51.542;7.230;2023-07-20T07:27:11;22.80;99.90
11497;DHT22;5805;51.542;7.230;2023-07-20T07:29:38;22.90;99.90
11497;DHT22;5805;51.542;7.230;2023-07-20T07:32:04;23.00;99.90
11497;DHT22;5805;51.542;7.230;2023-07-20T07:34:30;22.80;99.90
11497;DHT22;5805;51.542;7.230;2023-07-20T07:36:59;22.50;99.90
11497;DHT22;5805;51.542;7.230;2023-07-20T07:39:25;22.10;99.90
11497;DHT22;5805;51.542;7.230;2023-07-20T07:41:50;21.80;99.90
11497;DHT22;5805;51.542;7.230;2023-07-20T07:44:16;21.60;99.90
11497;DHT22;5805;51.542;7.230;2023-07-20T07:46:43;21.60;99.90
11497;DHT22;5805;51.542;7.230;2023-07-20T07:49:09;21.80;99.90
11497;DHT22;5805;51.542;7.230;2023-07-20T07:51:34;22.20;99.90
11497;DHT22;5805;51.542;7.230;2023-07-20T07:54:00;22.80;99.90
11497;DHT22;5805;51.542;7.230;2023-07-20T07:56:26;22.90;99.90
11497;DHT22;5805;51.542;7.230;2023-07-20T07:58:51;22.90;99.90
11497;DHT22;5805;51.542;7.230;2023-07-20T08:01:17;23.40;99.90
11497;DHT22;5805;51.542;7.230;2023-07-20T08:03:44;24.50;99.90
11497;DHT22;5805;51.542;7.230;2023-07-20T08:06:10;26.00;95.00
11497;DHT22;5805;51.542;7.230;2023-07-20T08:08:36;26.40;93.90
11497;DHT22;5805;51.542;7.230;2023-07-20T08:11:01;26.30;92.40
11497;DHT22;5805;51.542;7.230;2023-07-20T08:13:27;25.60;92.40
11497;DHT22;5805;51.542;7.230;2023-07-20T08:15:53;25.20;94.40
11497;DHT22;5805;51.542;7.230;2023-07-20T08:18:18;24.80;98.40
11497;DHT22;5805;51.542;7.230;2023-07-20T08:20:46;25.20;97.30
11497;DHT22;5805;51.542;7.230;2023-07-20T08:23:12;26.30;95.60
11497;DHT22;5805;51.542;7.230;2023-07-20T08:25:37;26.60;89.40
11497;DHT22;5805;51.542;7.230;2023-07-20T08:28:03;26.30;88.50
11497;DHT22;5805;51.542;7.230;2023-07-20T08:30:40;26.00;90.30
11497;DHT22;5805;51.542;7.230;2023-07-20T08:33:05;25.80;91.00
11497;DHT22;5805;51.542;7.230;2023-07-20T08:35:31;25.30;90.00
11497;DHT22;5805;51.542;7.230;2023-07-20T08:37:58;24.80;91.40
11497;DHT22;5805;51.542;7.230;2023-07-20T08:40:24;24.20;94.30
11497;DHT22;5805;51.542;7.230;2023-07-20T08:42:50;23.90;96.30
11497;DHT22;5805;51.542;7.230;2023-07-20T08:45:17;23.70;98.30
11497;DHT22;5805;51.542;7.230;2023-07-20T08:47:44;25.20;99.30
11497;DHT22;5805;51.542;7.230;2023-07-20T08:50:11;28.30;83.20
11497;DHT22;5805;51.542;7.230;2023-07-20T08:52:38;30.90;60.00
11497;DHT22;5805;51.542;7.230;2023-07-20T08:55:06;32.10;53.20
11497;DHT22;5805;51.542;7.230;2023-07-20T08:57:33;32.50;49.40
11497;DHT22;5805;51.542;7.230;2023-07-20T08:59:59;32.60;49.90
11497;DHT22;5805;51.542;7.230;2023-07-20T09:02:27;31.70;48.50
11497;DHT22;5805;51.542;7.230;2023-07-20T09:04:53;30.30;48.70
11497;DHT22;5805;51.542;7.230;2023-07-20T09:07:19;28.90;50.30
11497;DHT22;5805;51.542;7.230;2023-07-20T09:09:45;28.20;54.10
11497;DHT22;5805;51.542;7.230;2023-07-20T09:12:15;27.70;54.40
11497;DHT22;5805;51.542;7.230;2023-07-20T09:14:42;27.30;53.40
11497;DHT22;5805;51.542;7.230;2023-07-20T09:17:13;26.90;55.30
11497;DHT22;5805;51.542;7.230;2023-07-20T09:19:38;26.60;59.30
11497;DHT22;5805;51.542;7.230;2023-07-20T09:22:05;26.50;62.00
11497;DHT22;5805;51.542;7.230;2023-07-20T09:24:32;26.50;65.10
11497;DHT22;5805;51.542;7.230;2023-07-20T09:26:57;26.60;64.10
11497;DHT22;5805;51.542;7.230;2023-07-20T09:29:28;26.60;63.20
11497;DHT22;5805;51.542;7.230;2023-07-20T09:32:00;26.50;61.50
11497;DHT22;5805;51.542;7.230;2023-07-20T09:34:26;26.60;60.00
11497;DHT22;5805;51.542;7.230;2023-07-20T09:36:51;26.80;60.10
11497;DHT22;5805;51.542;7.230;2023-07-20T09:39:17;26.80;58.70
11497;DHT22;5805;51.542;7.230;2023-07-20T09:41:43;26.50;57.30
11497;DHT22;5805;51.542;7.230;2023-07-20T09:44:10;26.10;56.60
11497;DHT22;5805;51.542;7.230;2023-07-20T09:46:45;26.00;60.60
11497;DHT22;5805;51.542;7.230;2023-07-20T09:49:10;26.00;61.70
11497;DHT22;5805;51.542;7.230;2023-07-20T09:51:36;26.10;63.00
11497;DHT22;5805;51.542;7.230;2023-07-20T09:54:02;26.10;62.00
11497;DHT22;5805;51.542;7.230;2023-07-20T09:56:29;25.90;60.50
11497;DHT22;5805;51.542;7.230;2023-07-20T09:58:56;25.70;59.90
11497;DHT22;5805;51.542;7.230;2023-07-20T10:01:22;25.40;63.20
11497;DHT22;5805;51.542;7.230;2023-07-20T10:03:51;25.20;62.00
11497;DHT22;5805;51.542;7.230;2023-07-20T10:06:23;25.00;62.80
11497;DHT22;5805;51.542;7.230;2023-07-20T10:08:52;25.10;64.40
11497;DHT22;5805;51.542;7.230;2023-07-20T10:11:18;25.10;64.20
11497;DHT22;5805;51.542;7.230;2023-07-20T10:13:51;25.10;63.90
11497;DHT22;5805;51.542;7.230;2023-07-20T10:16:22;25.10;60.00
11497;DHT22;5805;51.542;7.230;2023-07-20T10:18:54;25.10;63.70
11497;DHT22;5805;51.542;7.230;2023-07-20T10:21:21;25.30;64.70
11497;DHT22;5805;51.542;7.230;2023-07-20T10:23:47;25.30;64.00
11497;DHT22;5805;51.542;7.230;2023-07-20T10:26:13;25.10;61.80
11497;DHT22;5805;51.542;7.230;2023-07-20T10:28:39;25.00;62.50
11497;DHT22;5805;51.542;7.230;2023-07-20T10:31:07;24.90;62.80
11497;DHT22;5805;51.542;7.230;2023-07-20T10:33:32;24.80;61.90
11497;DHT22;5805;51.542;7.230;2023-07-20T10:36:03;24.90;62.30
11497;DHT22;5805;51.542;7.230;2023-07-20T10:38:39;25.00;61.90
11497;DHT22;5805;51.542;7.230;2023-07-20T10:41:16;25.00;60.90
11497;DHT22;5805;51.542;7.230;2023-07-20T10:43:42;25.10;62.10
11497;DHT22;5805;51.542;7.230;2023-07-20T10:46:11;25.20;60.00
11497;DHT22;5805;51.542;7.230;2023-07-20T10:48:59;25.30;60.10
11497;DHT22;5805;51.542;7.230;2023-07-20T10:51:27;25.50;62.10
11497;DHT22;5805;51.542;7.230;2023-07-20T10:53:52;25.80;61.70
11497;DHT22;5805;51.542;7.230;2023-07-20T10:56:20;25.90;61.10
11497;DHT22;5805;51.542;7.230;2023-07-20T10:58:46;25.90;58.40
11497;DHT22;5805;51.542;7.230;2023-07-20T11:01:14;25.90;57.70
11497;DHT22;5805;51.542;7.230;2023-07-20T11:03:41;25.70;57.10
11497;DHT22;5805;51.542;7.230;2023-07-20T11:06:32;25.70;58.20
11497;DHT22;5805;51.542;7.230;2023-07-20T11:09:04;25.70;57.10
11497;DHT22;5805;51.542;7.230;2023-07-20T11:11:31;25.70;57.30
11497;DHT22;5805;51.542;7.230;2023-07-20T11:13:58;25.60;59.00
11497;DHT22;5805;51.542;7.230;2023-07-20T11:16:37;25.60;60.10
11497;DHT22;5805;51.542;7.230;2023-07-20T11:19:03;25.50;57.20
11497;DHT22;5805;51.542;7.230;2023-07-20T11:21:36;25.40;59.00
11497;DHT22;5805;51.542;7.230;2023-07-20T11:24:04;25.50;59.90
11497;DHT22;5805;51.542;7.230;2023-07-20T11:26:29;25.60;59.10
11497;DHT22;5805;51.542;7.230;2023-07-20T11:28:55;25.60;58.00
11497;DHT22;5805;51.542;7.230;2023-07-20T11:31:21;25.50;57.80
11497;DHT22;5805;51.542;7.230;2023-07-20T11:33:46;25.50;57.00
11497;DHT22;5805;51.542;7.230;2023-07-20T11:36:12;25.30;55.00
11497;DHT22;5805;51.542;7.230;2023-07-20T11:38:41;25.20;57.80
11497;DHT22;5805;51.542;7.230;2023-07-20T11:41:07;25.20;57.30
11497;DHT22;5805;51.542;7.230;2023-07-20T11:43:33;25.10;58.30
11497;DHT22;5805;51.542;7.230;2023-07-20T11:45:59;25.10;58.00
11497;DHT22;5805;51.542;7.230;2023-07-20T11:48:25;25.00;57.40
11497;DHT22;5805;51.542;7.230;2023-07-20T11:50:50;25.00;56.40
11497;DHT22;5805;51.542;7.230;2023-07-20T11:53:17;24.80;55.20
11497;DHT22;5805;51.542;7.230;2023-07-20T11:55:44;24.80;56.50
11497;DHT22;5805;51.542;7.230;2023-07-20T11:58:10;24.90;55.60
11497;DHT22;5805;51.542;7.230;2023-07-20T12:00:38;24.90;55.50
11497;DHT22;5805;51.542;7.230;2023-07-20T12:03:06;24.90;54.70
11497;DHT22;5805;51.542;7.230;2023-07-20T12:05:31;24.90;55.30
11497;DHT22;5805;51.542;7.230;2023-07-20T12:07:57;25.00;55.40
11497;DHT22;5805;51.542;7.230;2023-07-20T12:10:26;25.00;56.30
11497;DHT22;5805;51.542;7.230;2023-07-20T12:12:54;25.10;57.20
11497;DHT22;5805;51.542;7.230;2023-07-20T12:15:21;25.30;56.60
11497;DHT22;5805;51.542;7.230;2023-07-20T12:17:49;25.20;53.90
11497;DHT22;5805;51.542;7.230;2023-07-20T12:20:25;25.20;54.50
11497;DHT22;5805;51.542;7.230;2023-07-20T12:22:51;25.20;54.20
11497;DHT22;5805;51.542;7.230;2023-07-20T12:25:16;25.20;54.70
11497;DHT22;5805;51.542;7.230;2023-07-20T12:27:44;25.20;53.00
11497;DHT22;5805;51.542;7.230;2023-07-20T12:30:11;25.20;53.50
11497;DHT22;5805;51.542;7.230;2023-07-20T12:32:37;25.10;52.00
11497;DHT22;5805;51.542;7.230;2023-07-20T12:35:03;25.00;52.90
11497;DHT22;5805;51.542;7.230;2023-07-20T12:37:29;25.00;55.50
11497;DHT22;5805;51.542;7.230;2023-07-20T12:39:54;25.10;55.50
11497;DHT22;5805;51.542;7.230;2023-07-20T12:42:20;25.30;54.70
11497;DHT22;5805;51.542;7.230;2023-07-20T12:44:48;25.60;54.70
11497;DHT22;5805;51.542;7.230;2023-07-20T12:47:16;25.80;54.60
11497;DHT22;5805;51.542;7.230;2023-07-20T12:49:41;26.00;52.70
11497;DHT22;5805;51.542;7.230;2023-07-20T12:52:07;26.00;50.20
11497;DHT22;5805;51.542;7.230;2023-07-20T12:54:33;26.00;49.60
11497;DHT22;5805;51.542;7.230;2023-07-20T12:56:59;26.00;50.50
11497;DHT22;5805;51.542;7.230;2023-07-20T12:59:24;26.20;50.80
11497;DHT22;5805;51.542;7.230;2023-07-20T13:01:50;26.20;50.60
11497;DHT22;5805;51.542;7.230;2023-07-20T13:04:17;26.30;49.70
11497;DHT22;5805;51.542;7.230;2023-07-20T13:06:43;26.40;50.40
11497;DHT22;5805;51.542;7.230;2023-07-20T13:09:08;26.60;49.20
11497;DHT22;5805;51.542;7.230;2023-07-20T13:11:34;26.70;48.60
11497;DHT22;5805;51.542;7.230;2023-07-20T13:14:00;26.70;47.20
11497;DHT22;5805;51.542;7.230;2023-07-20T13:16:25;26.60;47.40
11497;DHT22;5805;51.542;7.230;2023-07-20T13:18:51;26.50;48.10
11497;DHT22;5805;51.542;7.230;2023-07-20T13:21:18;26.50;48.50
11497;DHT22;5805;51.542;7.230;2023-07-20T13:23:44;26.50;48.80
11497;DHT22;5805;51.542;7.230;2023-07-20T13:26:09;26.50;48.20
11497;DHT22;5805;51.542;7.230;2023-07-20T13:28:35;26.50;48.10
11497;DHT22;5805;51.542;7.230;2023-07-20T13:31:01;26.40;48.30
11497;DHT22;5805;51.542;7.230;2023-07-20T13:33:26;26.40;48.20
11497;DHT22;5805;51.542;7.230;2023-07-20T13:35:52;26.40;48.30
11497;DHT22;5805;51.542;7.230;2023-07-20T13:38:19;26.50;48.70
11497;DHT22;5805;51.542;7.230;2023-07-20T13:40:44;26.60;47.50
11497;DHT22;5805;51.542;7.230;2023-07-20T13:43:10;26.60;47.20
11497;DHT22;5805;51.542;7.230;2023-07-20T13:45:36;26.60;47.60
11497;DHT22;5805;51.542;7.230;2023-07-20T13:48:01;26.50;47.60
11497;DHT22;5805;51.542;7.230;2023-07-20T13:50:27;26.30;48.50
11497;DHT22;5805;51.542;7.230;2023-07-20T13:52:53;26.20;49.30
11497;DHT22;5805;51.542;7.230;2023-07-20T13:55:20;26.00;49.20
11497;DHT22;5805;51.542;7.230;2023-07-20T13:57:47;26.00;48.50
11497;DHT22;5805;51.542;7.230;2023-07-20T14:00:13;26.00;49.10
11497;DHT22;5805;51.542;7.230;2023-07-20T14:02:39;26.00;48.80
11497;DHT22;5805;51.542;7.230;2023-07-20T14:05:05;26.00;49.50
11497;DHT22;5805;51.542;7.230;2023-07-20T14:07:31;26.00;49.20
11497;DHT22;5805;51.542;7.230;2023-07-20T14:09:56;26.00;49.20
11497;DHT22;5805;51.542;7.230;2023-07-20T14:12:23;25.90;48.60
11497;DHT22;5805;51.542;7.230;2023-07-20T14:14:49;25.90;48.60
11497;DHT22;5805;51.542;7.230;2023-07-20T14:17:15;25.90;49.00
11497;DHT22;5805;51.542;7.230;2023-07-20T14:19:40;26.00;49.00
11497;DHT22;5805;51.542;7.230;2023-07-20T14:22:06;26.10;47.30
11497;DHT22;5805;51.542;7.230;2023-07-20T14:24:32;26.00;48.10
11497;DHT22;5805;51.542;7.230;2023-07-20T14:26:57;26.00;47.80
11497;DHT22;5805;51.542;7.230;2023-07-20T14:29:24;25.80;47.80
11497;DHT22;5805;51.542;7.230;2023-07-20T14:31:50;25.70;47.90
11497;DHT22;5805;51.542;7.230;2023-07-20T14:34:16;25.80;48.70
11497;DHT22;5805;51.542;7.230;2023-07-20T14:36:42;25.90;48.00
11497;DHT22;5805;51.542;7.230;2023-07-20T14:39:07;26.00;48.00
11497;DHT22;5805;51.542;7.230;2023-07-20T14:41:33;26.20;48.00
11497;DHT22;5805;51.542;7.230;2023-07-20T14:43:59;26.30;47.90
11497;DHT22;5805;51.542;7.230;2023-07-20T14:46:26;26.40;46.70
11497;DHT22;5805;51.542;7.230;2023-07-20T14:48:51;26.50;47.80
11497;DHT22;5805;51.542;7.230;2023-07-20T14:51:17;26.50;47.50
11497;DHT22;5805;51.542;7.230;2023-07-20T14:53:43;26.40;47.50
11497;DHT22;5805;51.542;7.230;2023-07-20T14:56:09;26.20;47.00
11497;DHT22;5805;51.542;7.230;2023-07-20T14:58:34;26.10;47.50
11497;DHT22;5805;51.542;7.230;2023-07-20T15:01:00;26.10;48.30
11497;DHT22;5805;51.542;7.230;2023-07-20T15:03:27;26.10;48.20
11497;DHT22;5805;51.542;7.230;2023-07-20T15:05:53;26.20;48.00
11497;DHT22;5805;51.542;7.230;2023-07-20T15:08:18;26.20;47.40
11497;DHT22;5805;51.542;7.230;2023-07-20T15:10:44;26.20;47.20
11497;DHT22;5805;51.542;7.230;2023-07-20T15:13:10;26.20;48.00
11497;DHT22;5805;51.542;7.230;2023-07-20T15:15:35;26.20;48.00
11497;DHT22;5805;51.542;7.230;2023-07-20T15:18:01;26.30;47.70
11497;DHT22;5805;51.542;7.230;2023-07-20T15:20:28;26.40;46.90
11497;DHT22;5805;51.542;7.230;2023-07-20T15:22:53;26.50;47.10
11497;DHT22;5805;51.542;7.230;2023-07-20T15:25:19;26.60;47.00
11497;DHT22;5805;51.542;7.230;2023-07-20T15:27:45;26.70;46.10
11497;DHT22;5805;51.542;7.230;2023-07-20T15:30:14;26.60;46.60
11497;DHT22;5805;51.542;7.230;2023-07-20T15:32:40;26.60;47.10
11497;DHT22;5805;51.542;7.230;2023-07-20T15:35:06;26.30;47.70
11497;DHT22;5805;51.542;7.230;2023-07-20T15:37:33;26.10;48.60
11497;DHT22;5805;51.542;7.230;2023-07-20T15:39:59;26.00;48.80
11497;DHT22;5805;51.542;7.230;2023-07-20T15:42:25;26.00;48.20